createdAt,value
2018-06-10T00:01:05.177Z,18.70
2018-06-10T00:03:33.064Z,18.60
2018-06-10T00:06:00.894Z,18.60
2018-06-10T00:08:28.736Z,18.60
2018-06-10T00:10:56.612Z,18.60
2018-06-10T00:13:24.352Z,18.50
2018-06-10T00:15:52.133Z,18.50
2018-06-10T00:18:19.993Z,18.40
2018-06-10T00:20:47.759Z,18.40
2018-06-10T00:23:15.559Z,18.40
2018-06-10T00:25:43.438Z,18.30
2018-06-10T00:28:11.303Z,18.30
2018-06-10T00:30:39.134Z,18.30
2018-06-10T00:33:06.899Z,18.20
2018-06-10T00:35:34.737Z,18.20
2018-06-10T00:38:02.607Z,18.20
2018-06-10T00:40:30.548Z,18.20
2018-06-10T00:42:58.411Z,18.20
2018-06-10T00:45:26.286Z,18.20
2018-06-10T00:47:54.129Z,18.20
2018-06-10T00:50:21.953Z,18.20
2018-06-10T00:52:49.875Z,18.20
2018-06-10T00:55:17.717Z,18.20
2018-06-10T00:57:45.561Z,18.20
2018-06-10T01:00:13.413Z,18.30
2018-06-10T01:02:41.226Z,18.30
2018-06-10T01:05:09.114Z,18.30
2018-06-10T01:07:36.914Z,18.30
2018-06-10T01:10:04.799Z,18.30
2018-06-10T01:12:32.559Z,18.30
2018-06-10T01:15:00.463Z,18.30
2018-06-10T01:17:28.272Z,18.20
2018-06-10T01:19:56.114Z,18.20
2018-06-10T01:22:23.986Z,18.20
2018-06-10T01:24:51.792Z,18.20
2018-06-10T01:27:19.641Z,18.20
2018-06-10T01:29:47.453Z,18.20
2018-06-10T01:32:15.360Z,18.20
2018-06-10T01:34:43.204Z,18.30
2018-06-10T01:37:11.037Z,18.30
2018-06-10T01:39:38.908Z,18.30
2018-06-10T01:42:06.715Z,18.30
2018-06-10T01:44:34.533Z,18.30
2018-06-10T01:47:02.385Z,18.30
2018-06-10T01:49:30.217Z,18.30
2018-06-10T01:51:58.006Z,18.30
2018-06-10T01:54:25.853Z,18.30
2018-06-10T01:56:53.684Z,18.30
2018-06-10T01:59:21.574Z,18.30
2018-06-10T02:01:49.391Z,18.30
2018-06-10T02:04:17.197Z,18.30
2018-06-10T02:06:45.109Z,18.40
2018-06-10T02:09:12.934Z,18.40
2018-06-10T02:11:40.713Z,18.40
2018-06-10T02:14:08.563Z,18.50
2018-06-10T02:16:36.375Z,18.50
2018-06-10T02:19:04.321Z,18.50
2018-06-10T02:21:32.132Z,18.50
2018-06-10T02:23:59.953Z,18.60
2018-06-10T02:26:27.802Z,18.60
2018-06-10T02:28:55.641Z,18.60
2018-06-10T02:31:23.490Z,18.70
2018-06-10T02:33:51.325Z,18.70
2018-06-10T02:36:19.184Z,18.80
2018-06-10T02:38:46.985Z,18.80
2018-06-10T02:41:14.797Z,18.80
2018-06-10T02:43:42.727Z,18.80
2018-06-10T02:46:10.609Z,18.80
2018-06-10T02:48:38.456Z,18.90
2018-06-10T02:51:06.353Z,18.90
2018-06-10T02:53:35.260Z,18.90
2018-06-10T02:56:03.193Z,19.00
2018-06-10T02:58:31.040Z,19.00
2018-06-10T03:00:58.937Z,19.10
2018-06-10T03:03:26.792Z,19.10
2018-06-10T03:05:54.612Z,19.20
2018-06-10T03:08:22.417Z,19.20
2018-06-10T03:10:50.299Z,19.30
2018-06-10T03:13:18.205Z,19.30
2018-06-10T03:15:45.978Z,19.30
2018-06-10T03:18:13.725Z,19.40
2018-06-10T03:20:41.600Z,19.40
2018-06-10T03:23:09.480Z,19.40
2018-06-10T03:25:37.294Z,19.50
2018-06-10T03:28:05.079Z,19.50
2018-06-10T03:30:33.018Z,19.60
2018-06-10T03:33:00.852Z,19.60
2018-06-10T03:35:28.708Z,19.60
2018-06-10T03:37:56.506Z,19.70
2018-06-10T03:40:24.317Z,19.80
2018-06-10T03:42:52.122Z,19.80
2018-06-10T03:45:19.977Z,19.90
2018-06-10T03:47:47.781Z,19.90
2018-06-10T03:50:15.617Z,20.00
2018-06-10T03:52:43.467Z,20.10
2018-06-10T03:55:11.268Z,20.20
2018-06-10T03:57:39.058Z,20.40
2018-06-10T04:00:06.942Z,20.60
2018-06-10T04:02:34.753Z,20.80
2018-06-10T04:05:02.782Z,20.90
2018-06-10T04:07:30.566Z,21.10
2018-06-10T04:09:58.413Z,21.30
2018-06-10T04:12:26.316Z,21.50
2018-06-10T04:14:54.117Z,21.60
2018-06-10T04:17:21.928Z,21.80
2018-06-10T04:19:49.749Z,21.90
2018-06-10T04:22:17.588Z,22.00
2018-06-10T04:24:45.413Z,22.10
2018-06-10T04:27:13.206Z,22.20
2018-06-10T04:29:40.968Z,22.40
2018-06-10T04:32:08.835Z,22.50
2018-06-10T04:34:36.661Z,22.60
2018-06-10T04:39:32.312Z,22.90
2018-06-10T04:42:00.048Z,23.10
2018-06-10T04:44:27.785Z,23.30
2018-06-10T04:46:55.661Z,23.60
2018-06-10T04:49:23.383Z,24.20
2018-06-10T04:51:51.131Z,24.40
2018-06-10T04:54:18.957Z,24.70
2018-06-10T04:56:46.809Z,24.80
2018-06-10T04:59:14.653Z,25.00
2018-06-10T05:01:42.456Z,25.10
2018-06-10T05:04:10.301Z,25.30
2018-06-10T05:06:38.118Z,25.60
2018-06-10T05:09:06.458Z,25.90
2018-06-10T05:11:34.250Z,26.10
2018-06-10T05:14:02.075Z,26.30
2018-06-10T05:16:29.887Z,27.00
2018-06-10T05:18:57.652Z,27.50
2018-06-10T05:21:25.372Z,28.30
2018-06-10T05:23:53.115Z,28.20
2018-06-10T05:26:20.869Z,27.90
2018-06-10T05:28:48.604Z,28.20
2018-06-10T05:31:16.365Z,28.50
2018-06-10T05:33:44.132Z,28.40
2018-06-10T05:36:11.981Z,28.60
2018-06-10T05:38:39.824Z,30.10
2018-06-10T05:41:07.622Z,30.60
2018-06-10T05:43:35.445Z,30.90
2018-06-10T05:46:03.267Z,31.30
2018-06-10T05:48:31.085Z,32.30
2018-06-10T05:50:58.880Z,32.80
2018-06-10T05:53:26.872Z,33.00
2018-06-10T05:55:54.637Z,32.60
2018-06-10T05:58:22.481Z,32.10
2018-06-10T06:00:50.269Z,31.40
2018-06-10T06:03:18.048Z,30.70
2018-06-10T06:05:45.840Z,30.10
2018-06-10T06:08:13.683Z,29.60
2018-06-10T06:10:41.488Z,29.20
2018-06-10T06:13:09.344Z,28.90
2018-06-10T06:15:37.270Z,28.90
2018-06-10T06:18:05.184Z,28.90
2018-06-10T06:20:32.927Z,28.90
2018-06-10T06:23:00.708Z,28.80
2018-06-10T06:25:28.496Z,28.80
2018-06-10T06:27:56.260Z,28.80
2018-06-10T06:30:24.106Z,28.90
2018-06-10T06:32:51.884Z,29.00
2018-06-10T06:35:19.695Z,28.90
2018-06-10T06:37:47.480Z,29.00
2018-06-10T06:40:15.197Z,29.00
2018-06-10T06:42:43.009Z,29.10
2018-06-10T06:45:10.837Z,29.30
2018-06-10T06:47:38.657Z,29.20
2018-06-10T06:50:06.448Z,29.00
2018-06-10T06:52:34.273Z,28.70
2018-06-10T06:55:02.036Z,28.50
2018-06-10T06:57:29.888Z,28.20
2018-06-10T06:59:57.653Z,28.10
2018-06-10T07:02:25.380Z,27.90
2018-06-10T07:04:53.246Z,27.80
2018-06-10T07:07:21.032Z,27.70
2018-06-10T07:09:48.814Z,27.70
2018-06-10T07:12:16.596Z,27.70
2018-06-10T07:14:44.388Z,27.70
2018-06-10T07:17:12.156Z,27.70
2018-06-10T07:19:39.888Z,27.70
2018-06-10T07:22:07.727Z,27.80
2018-06-10T07:24:35.580Z,27.90
2018-06-10T07:27:03.340Z,27.90
2018-06-10T07:29:31.178Z,27.90
2018-06-10T07:31:59.000Z,28.00
2018-06-10T07:34:26.731Z,28.10
2018-06-10T07:36:54.479Z,28.10
2018-06-10T07:39:22.236Z,28.10
2018-06-10T07:41:50.079Z,28.10
2018-06-10T07:44:17.841Z,28.10
2018-06-10T07:46:45.628Z,28.20
2018-06-10T07:49:13.415Z,28.30
2018-06-10T07:51:41.212Z,28.40
2018-06-10T07:54:09.035Z,28.60
2018-06-10T07:56:36.794Z,28.70
2018-06-10T07:59:04.672Z,28.80
2018-06-10T08:01:32.535Z,28.80
2018-06-10T08:04:00.341Z,28.90
2018-06-10T08:06:28.148Z,29.00
2018-06-10T08:08:55.868Z,29.00
2018-06-10T08:11:23.648Z,29.10
2018-06-10T08:13:51.383Z,29.20
2018-06-10T08:16:19.187Z,29.20
2018-06-10T08:18:47.098Z,29.20
2018-06-10T08:21:14.843Z,29.10
2018-06-10T08:23:42.627Z,29.10
2018-06-10T08:26:10.448Z,29.00
2018-06-10T08:28:38.217Z,28.90
2018-06-10T08:31:05.972Z,28.80
2018-06-10T08:33:33.687Z,28.70
2018-06-10T08:36:01.517Z,28.70
2018-06-10T08:38:29.271Z,28.70
2018-06-10T08:40:57.072Z,28.70
2018-06-10T08:43:24.848Z,28.70
2018-06-10T08:45:52.609Z,28.70
2018-06-10T08:48:20.417Z,28.70
2018-06-10T08:50:48.209Z,28.70
2018-06-10T08:53:16.020Z,28.80
2018-06-10T08:55:43.779Z,28.80
2018-06-10T08:58:11.579Z,28.80
2018-06-10T09:00:39.344Z,28.90
2018-06-10T09:05:34.988Z,29.30
2018-06-10T09:10:30.556Z,29.40
2018-06-10T09:12:58.344Z,29.30
2018-06-10T09:15:26.107Z,29.20
2018-06-10T09:17:53.880Z,29.10
2018-06-10T09:20:21.668Z,29.10
2018-06-10T09:22:49.443Z,29.00
2018-06-10T09:25:17.224Z,29.00
2018-06-10T09:27:48.761Z,28.90
2018-06-10T09:30:23.984Z,28.90
2018-06-10T09:32:51.672Z,28.80
2018-06-10T09:35:19.446Z,28.90
2018-06-10T09:37:51.269Z,28.80
2018-06-10T09:40:21.164Z,28.70
2018-06-10T09:43:14.276Z,28.80
2018-06-10T09:45:42.017Z,28.80
2018-06-10T09:48:09.761Z,28.80
2018-06-10T09:50:37.605Z,28.80
2018-06-10T09:53:05.401Z,28.90
2018-06-10T09:55:38.558Z,29.00
2018-06-10T09:58:06.260Z,29.10
2018-06-10T10:00:34.028Z,29.20
2018-06-10T10:03:01.814Z,29.40
2018-06-10T10:05:29.553Z,29.60
2018-06-10T10:07:57.344Z,29.60
2018-06-10T10:10:25.145Z,29.70
2018-06-10T10:12:52.961Z,29.80
2018-06-10T10:15:20.802Z,30.00
2018-06-10T10:17:48.721Z,30.20
2018-06-10T10:20:16.548Z,30.60
2018-06-10T10:22:51.839Z,30.90
2018-06-10T10:25:19.758Z,31.20
2018-06-10T10:27:47.764Z,31.40
2018-06-10T10:30:32.148Z,31.60
2018-06-10T10:33:00.036Z,31.70
2018-06-10T10:35:27.877Z,31.90
2018-06-10T10:50:01.218Z,33.50
2018-06-10T10:52:29.095Z,33.70
2018-06-10T10:54:56.940Z,33.80
2018-06-10T10:57:24.829Z,34.00
2018-06-10T10:59:52.717Z,34.20
2018-06-10T11:02:20.560Z,34.30
2018-06-10T11:04:48.377Z,34.40
2018-06-10T11:07:16.171Z,34.50
2018-06-10T11:09:44.113Z,34.60
2018-06-10T11:12:11.901Z,34.70
2018-06-10T11:14:39.689Z,34.80
2018-06-10T11:17:07.567Z,34.90
2018-06-10T11:19:35.369Z,35.10
2018-06-10T11:22:03.204Z,35.10
2018-06-10T11:27:30.742Z,35.10
2018-06-10T11:29:58.536Z,35.20
2018-06-10T11:32:26.361Z,35.30
2018-06-10T11:34:54.224Z,35.10
2018-06-10T11:37:22.075Z,34.80
2018-06-10T11:39:49.896Z,34.60
2018-06-10T11:44:45.599Z,35.00
2018-06-10T11:47:13.420Z,35.10
2018-06-10T11:49:41.214Z,35.30
2018-06-10T11:52:09.067Z,35.60
2018-06-10T11:54:36.729Z,36.00
2018-06-10T11:57:04.558Z,36.60
2018-06-10T11:59:32.293Z,37.00
2018-06-10T12:02:00.095Z,37.10
2018-06-10T12:04:27.783Z,37.10
2018-06-10T12:06:55.543Z,37.10
2018-06-10T12:09:23.294Z,37.00
2018-06-10T12:11:51.087Z,37.30
2018-06-10T12:14:18.918Z,37.70
2018-06-10T12:16:46.722Z,38.00
2018-06-10T12:19:14.508Z,38.10
2018-06-10T12:21:42.322Z,38.00
2018-06-10T12:24:10.072Z,38.10
2018-06-10T12:26:37.877Z,38.00
2018-06-10T12:29:05.744Z,37.90
2018-06-10T12:31:33.599Z,37.70
2018-06-10T12:34:01.362Z,37.30
2018-06-10T12:36:29.285Z,37.30
2018-06-10T12:38:56.984Z,37.20
2018-06-10T12:41:24.794Z,37.10
2018-06-10T12:43:52.573Z,37.20
2018-06-10T12:46:20.773Z,37.30
2018-06-10T12:48:48.680Z,37.50
2018-06-10T12:51:16.505Z,37.80
2018-06-10T12:53:44.321Z,37.80
2018-06-10T12:56:12.128Z,37.90
2018-06-10T12:58:39.983Z,38.10
2018-06-10T13:01:07.761Z,38.30
2018-06-10T13:03:35.525Z,38.30
2018-06-10T13:06:03.332Z,38.40
2018-06-10T13:08:31.111Z,38.40
2018-06-10T13:10:58.897Z,38.20
2018-06-10T13:13:26.659Z,38.10
2018-06-10T13:15:54.436Z,38.10
2018-06-10T13:18:22.189Z,38.20
2018-06-10T13:20:49.949Z,38.30
2018-06-10T13:23:17.782Z,38.00
2018-06-10T13:25:45.585Z,38.10
2018-06-10T13:28:13.340Z,38.50
2018-06-10T13:30:41.125Z,38.40
2018-06-10T13:33:08.893Z,38.50
2018-06-10T13:35:36.725Z,38.70
2018-06-10T13:38:04.721Z,38.70
2018-06-10T13:40:32.425Z,38.90
2018-06-10T13:43:00.252Z,39.10
2018-06-10T13:45:28.050Z,39.20
2018-06-10T13:47:55.944Z,39.10
2018-06-10T13:50:23.752Z,39.30
2018-06-10T13:52:51.646Z,39.20
2018-06-10T13:55:19.491Z,39.10
2018-06-10T13:57:47.300Z,39.10
2018-06-10T14:00:15.136Z,39.10
2018-06-10T14:02:42.945Z,39.10
2018-06-10T14:05:10.768Z,39.00
2018-06-10T14:07:38.565Z,39.00
2018-06-10T14:10:06.365Z,39.00
2018-06-10T14:12:34.208Z,39.00
2018-06-10T14:15:02.006Z,38.80
2018-06-10T14:17:29.723Z,38.80
2018-06-10T14:19:57.472Z,39.00
2018-06-10T14:22:25.328Z,39.20
2018-06-10T14:24:53.164Z,38.90
2018-06-10T14:27:20.966Z,38.60
2018-06-10T14:29:48.743Z,38.50
2018-06-10T14:32:16.577Z,38.50
2018-06-10T14:34:44.400Z,38.20
2018-06-10T14:37:12.270Z,37.20
2018-06-10T14:39:40.085Z,36.30
2018-06-10T14:42:07.885Z,35.80
2018-06-10T14:44:35.658Z,35.90
2018-06-10T14:47:03.485Z,35.90
2018-06-10T14:49:31.395Z,35.90
2018-06-10T14:51:59.183Z,35.50
2018-06-10T14:54:26.985Z,35.40
2018-06-10T14:56:54.820Z,35.40
2018-06-10T14:59:22.652Z,35.30
2018-06-10T15:01:50.488Z,35.00
2018-06-10T15:04:18.260Z,34.70
2018-06-10T15:07:12.277Z,34.60
2018-06-10T15:09:40.177Z,34.40
2018-06-10T15:12:07.953Z,34.20
2018-06-10T15:14:35.776Z,34.20
2018-06-10T15:17:03.492Z,34.10
2018-06-10T15:19:31.292Z,34.10
2018-06-10T15:21:59.111Z,34.00
2018-06-10T15:24:26.981Z,34.00
2018-06-10T15:26:54.783Z,34.20
2018-06-10T15:29:22.530Z,34.30
2018-06-10T15:31:50.396Z,34.40
2018-06-10T15:34:18.199Z,34.30
2018-06-10T15:36:46.010Z,34.30
2018-06-10T15:39:13.853Z,34.50
2018-06-10T15:41:41.657Z,34.90
2018-06-10T15:44:09.501Z,35.30
2018-06-10T15:46:37.255Z,35.30
2018-06-10T15:49:05.096Z,35.30
2018-06-10T15:51:32.938Z,35.10
2018-06-10T15:54:00.705Z,34.90
2018-06-10T15:56:28.581Z,34.70
2018-06-10T15:58:56.378Z,34.30
2018-06-10T16:01:24.203Z,34.10
2018-06-10T16:03:51.948Z,33.90
2018-06-10T16:09:33.177Z,34.20
2018-06-10T16:15:06.314Z,34.40
2018-06-10T16:23:38.538Z,34.90
2018-06-10T16:26:06.348Z,34.70
2018-06-10T16:28:34.160Z,34.30
2018-06-10T16:31:02.075Z,33.70
2018-06-10T16:36:35.109Z,32.80
2018-06-10T16:39:04.564Z,32.30
2018-06-10T16:41:32.384Z,32.00
2018-06-10T16:44:00.105Z,31.80
2018-06-10T16:46:28.006Z,31.60
2018-06-10T16:48:55.804Z,31.60
2018-06-10T16:51:23.624Z,31.60
2018-06-10T16:53:51.578Z,31.50
2018-06-10T16:56:19.385Z,31.30
2018-06-10T16:58:47.145Z,30.70
2018-06-10T17:01:14.963Z,30.20
2018-06-10T17:03:42.737Z,29.70
2018-06-10T17:06:10.601Z,29.30
2018-06-10T17:08:38.376Z,29.00
2018-06-10T17:11:06.260Z,28.70
2018-06-10T17:13:34.107Z,28.50
2018-06-10T17:16:01.989Z,28.30
2018-06-10T17:18:29.724Z,28.20
2018-06-10T17:20:57.531Z,28.00
2018-06-10T17:23:25.304Z,27.80
2018-06-10T17:25:53.071Z,27.60
2018-06-10T17:28:20.895Z,27.40
2018-06-10T17:30:48.637Z,27.20
2018-06-10T17:33:16.463Z,27.10
2018-06-10T17:35:44.280Z,26.90
2018-06-10T17:38:12.024Z,26.80
2018-06-10T17:40:39.869Z,26.70
2018-06-10T17:43:07.715Z,26.60
2018-06-10T17:45:35.514Z,26.40
2018-06-10T17:48:03.349Z,26.30
2018-06-10T17:50:31.131Z,26.10
2018-06-10T17:52:59.013Z,25.90
2018-06-10T17:55:26.807Z,25.80
2018-06-10T17:57:54.584Z,25.60
2018-06-10T18:00:22.365Z,25.40
2018-06-10T18:02:50.184Z,25.20
2018-06-10T18:05:18.028Z,25.00
2018-06-10T18:07:45.854Z,24.70
2018-06-10T18:10:13.696Z,24.50
2018-06-10T18:12:41.480Z,24.10
2018-06-10T18:15:09.298Z,23.80
2018-06-10T18:17:37.087Z,23.50
2018-06-10T18:20:04.945Z,23.40
2018-06-10T18:22:32.720Z,23.20
2018-06-10T18:25:00.545Z,23.10
2018-06-10T18:27:28.352Z,23.00
2018-06-10T18:29:56.108Z,23.10
2018-06-10T18:32:23.918Z,23.10
2018-06-10T18:34:51.737Z,23.30
2018-06-10T18:37:19.669Z,23.40
2018-06-10T18:39:47.542Z,23.40
2018-06-10T18:42:15.327Z,23.50
2018-06-10T18:44:43.129Z,23.60
2018-06-10T18:47:10.895Z,23.70
2018-06-10T18:49:38.684Z,23.80
2018-06-10T18:52:06.496Z,23.90
2018-06-10T18:54:34.349Z,24.00
2018-06-10T18:57:02.153Z,23.80
2018-06-10T18:59:29.968Z,23.80
2018-06-10T19:01:57.813Z,23.60
2018-06-10T19:04:25.616Z,23.50
2018-06-10T19:09:25.598Z,23.30
2018-06-10T19:11:53.498Z,23.10
2018-06-10T19:14:21.310Z,23.00
2018-06-10T19:16:49.157Z,22.80
2018-06-10T19:19:16.972Z,22.70
2018-06-10T19:21:44.937Z,22.60
2018-06-10T19:24:12.774Z,22.50
2018-06-10T19:26:40.608Z,22.40
2018-06-10T19:29:08.405Z,22.20
2018-06-10T19:31:36.168Z,22.00
2018-06-10T19:34:08.489Z,21.80
2018-06-10T19:36:39.517Z,21.60
2018-06-10T19:39:11.487Z,21.50
2018-06-10T19:41:39.365Z,21.40
2018-06-10T19:44:07.208Z,21.40
2018-06-10T19:49:47.432Z,21.30
2018-06-10T19:52:15.253Z,21.20
2018-06-10T19:54:43.116Z,21.20
2018-06-10T19:57:10.941Z,21.20
2018-06-10T20:02:06.741Z,21.20
2018-06-10T20:04:34.588Z,21.10
2018-06-10T20:07:02.436Z,21.10
2018-06-10T20:09:43.782Z,21.00
2018-06-10T20:12:11.654Z,21.00
2018-06-10T20:14:58.721Z,20.90
2018-06-10T20:20:45.141Z,20.90
2018-06-10T20:23:19.281Z,20.80
2018-06-10T20:25:47.103Z,20.70
2018-06-10T20:28:15.086Z,20.70
2018-06-10T20:30:55.657Z,20.60
2018-06-10T20:33:23.473Z,20.60
2018-06-10T20:35:51.272Z,20.50
2018-06-10T20:38:30.202Z,20.40
2018-06-10T20:44:00.262Z,20.20
2018-06-10T20:46:28.225Z,20.10
2018-06-10T20:48:56.085Z,20.00
2018-06-10T20:51:23.930Z,20.00
2018-06-10T20:53:51.756Z,19.90
2018-06-10T20:56:25.488Z,19.80
2018-06-10T20:58:53.349Z,19.80
2018-06-10T21:01:21.212Z,19.70
2018-06-10T21:03:49.015Z,19.70
2018-06-10T21:06:16.955Z,19.70
2018-06-10T21:08:44.765Z,19.70
2018-06-10T21:11:12.577Z,19.70
2018-06-10T21:14:01.668Z,19.60
2018-06-10T21:16:29.510Z,19.60
2018-06-10T21:18:57.328Z,19.50
2018-06-10T21:21:25.178Z,19.50
2018-06-10T21:23:53.058Z,19.50
2018-06-10T21:26:20.835Z,19.40
2018-06-10T21:28:48.664Z,19.40
2018-06-10T21:31:16.533Z,19.40
2018-06-10T21:33:44.319Z,19.30
2018-06-10T21:36:12.257Z,19.30
2018-06-10T21:38:40.225Z,19.30
2018-06-10T21:41:08.077Z,19.30
2018-06-10T21:43:35.856Z,19.20
2018-06-10T21:49:24.583Z,19.10
2018-06-10T21:51:52.458Z,19.10
2018-06-10T21:54:20.321Z,19.10
2018-06-10T21:56:48.088Z,19.00
2018-06-10T21:59:15.962Z,19.00
2018-06-10T22:01:43.784Z,19.00
2018-06-10T22:04:11.584Z,19.00
2018-06-10T22:06:39.343Z,19.00
2018-06-10T22:09:07.573Z,19.00
2018-06-10T22:11:35.707Z,18.90
2018-06-10T22:14:03.553Z,18.90
2018-06-10T22:16:31.454Z,18.80
2018-06-10T22:19:22.889Z,18.80
2018-06-10T22:24:18.624Z,18.70
2018-06-10T22:26:46.524Z,18.70
2018-06-10T22:29:14.366Z,18.70
2018-06-10T22:31:42.221Z,18.70
2018-06-10T22:34:10.118Z,18.70
2018-06-10T22:36:37.934Z,18.70
2018-06-10T22:39:07.676Z,18.70
2018-06-10T22:41:35.612Z,18.60
2018-06-10T22:44:03.425Z,18.60
2018-06-10T22:46:31.254Z,18.60
2018-06-10T22:48:59.153Z,18.60
2018-06-10T22:54:12.315Z,18.60
2018-06-10T22:56:40.185Z,18.60
2018-06-10T22:59:08.025Z,18.60
2018-06-10T23:01:35.897Z,18.50
2018-06-10T23:04:03.709Z,18.50
2018-06-10T23:06:31.588Z,18.50
2018-06-10T23:08:59.477Z,18.50
2018-06-10T23:11:27.648Z,18.40
2018-06-10T23:13:55.468Z,18.40
2018-06-10T23:16:23.296Z,18.50
2018-06-10T23:18:51.166Z,18.40
2018-06-10T23:21:18.966Z,18.50
2018-06-10T23:23:47.670Z,18.40
2018-06-10T23:26:15.507Z,18.40
2018-06-10T23:28:43.451Z,18.30
2018-06-10T23:31:11.261Z,18.30
2018-06-10T23:33:39.108Z,18.30
2018-06-10T23:36:06.925Z,18.30
2018-06-10T23:38:34.774Z,18.30
2018-06-10T23:41:02.560Z,18.30
2018-06-10T23:43:30.428Z,18.30
2018-06-10T23:45:58.309Z,18.30
2018-06-10T23:48:26.124Z,18.30
2018-06-10T23:50:53.992Z,18.30
2018-06-10T23:53:21.748Z,18.30
2018-06-10T23:55:49.546Z,18.30
2018-06-10T23:58:17.321Z,18.30
